KGFL/GFL METAR and TAF weather

Enter ICAO airport designator
Station Type Date Time Source
KGFL METAR 2020/05/30 05:53 UTC NOAA

KGFL 300553Z AUTO 20006KT 10SM -RA SCT110 18/17 A2978 RMK AO2 RAB01E20B49 SLP081 P0000 60010 T01830167 10200 20183 56010


Station Type Date Time Source
KGFL Decoded METAR 2020/05/30 05:53 UTC NOAA

FLOYD BENNETT MEMORIAL AIRPORT , NY, United States (KGFL) 43-20N 073-37W 103M
May 30, 2020 - 01:53 AM EDT / 2020.05.30 0553 UTC
Wind: from the SSW (200 degrees) at 7 MPH (6 KT):0
Visibility: 10 mile(s):0
Sky conditions: partly cloudy
Weather: light rain
Precipitation last hour: A trace
Temperature: 64.9 F (18.3 C)
Dew Point: 62.1 F (16.7 C)
Relative Humidity: 90%
Pressure (altimeter): 29.78 in. Hg (1008 hPa)
Pressure tendency: 0.03 inches (1.0 hPa) lower than three hours ago
ob: KGFL 300553Z AUTO 20006KT 10SM -RA SCT110 18/17 A2978 RMK AO2 RAB01E20B49 SLP081 P0000 60010 T01830167 10200 20183 56010
cycle: 6

Station Type Date Time Source
KGFL TAF 2020/05/30 06:39 UTC NOAA

TAF KGFL 300537Z 3006/3106 20009KT P6SM VCSH BKN100
TEMPO 3006/3008 5SM -SHRA BR SCT025 BKN050
FM300800 23008KT P6SM BKN050 BKN100
FM301100 27010G18KT P6SM BKN025 OVC060
FM301600 28010KT P6SM BKN045
FM302000 26007KT P6SM SCT045 BKN100
FM310000 25006KT P6SM VCSH OVC050

Example: see airport list